MDT,Max TemperatureF,Mean TemperatureF,Min TemperatureF,Max Dew PointF,MeanDew PointF,Min DewpointF,Max Humidity, Mean Humidity, Min Humidity, Max Sea Level PressureIn, Mean Sea Level PressureIn, Min Sea Level PressureIn, Max VisibilityMiles, Mean VisibilityMiles, Min VisibilityMiles, Max Wind SpeedMPH, Mean Wind SpeedMPH, Max Gust SpeedMPH,PrecipitationIn, CloudCover, Events, WindDirDegrees
2013-3-1,38,28,18,25,22,17,100,77,54,30.41,30.34,30.26,,,,20,9,23,0.00,,,161
2013-3-2,60,43,26,33,30,24,100,66,32,30.23,30.07,29.89,,,,28,13,32,0.00,,,255
2013-3-3,53,43,32,35,33,32,100,75,50,29.87,29.69,29.58,,,,23,11,28,0.06,,,137
2013-3-4,33,23,13,32,18,8,100,87,73,30.30,29.94,29.70,,,,46,30,55,0.02,,,296
2013-3-5,24,17,9,16,11,5,88,80,71,30.51,30.45,30.34,,,,33,14,40,0.00,,,9
2013-3-6,38,26,13,21,17,11,96,74,52,30.39,30.17,29.92,,,,30,20,40,0.00,,,124
2013-3-7,50,36,22,28,23,20,100,68,36,30.22,30.04,29.88,,,,28,12,36,0.00,,,63
2013-3-8,45,35,25,30,27,24,100,75,49,30.21,30.09,29.93,,,,22,9,24,0.00,,,77
2013-3-9,36,28,20,30,25,17,100,85,69,30.22,30.01,29.88,,,,29,17,35,0.00,,,350
2013-3-10,38,25,12,15,11,7,92,60,27,30.35,30.23,30.04,,,,23,13,28,0.00,,,1
2013-3-11,46,32,18,26,16,12,73,51,28,30.14,29.99,29.90,,,,38,21,48,0.00,,,297
2013-3-12,37,27,16,15,6,-2,74,47,20,30.37,30.31,30.16,,,,38,19,48,0.00,,,335
2013-3-13,63,41,19,28,17,6,62,42,22,30.32,30.16,30.03,,,,21,12,24,0.00,,,188
2013-3-14,71,54,36,33,30,27,76,48,20,30.15,30.05,29.93,,,,20,11,28,0.00,,,302
2013-3-15,53,39,24,34,29,21,100,71,41,30.14,29.94,29.84,,,,24,11,28,0.00,,,42
2013-3-16,33,26,18,18,16,13,91,70,49,30.22,30.17,30.10,,,,22,10,26,0.00,,,94
2013-3-17,47,30,13,33,21,7,100,81,62,30.06,29.71,29.43,,,,44,27,54,0.03,,,164
2013-3-18,34,21,8,8,3,-1,73,51,28,30.09,30.00,29.81,,,,40,21,48,0.00,,,321
2013-3-19,34,23,11,18,7,1,91,58,25,30.48,30.27,30.03,,,,32,16,38,0.00,,,318
2013-3-20,42,24,6,10,5,2,80,50,20,30.48,30.23,30.00,,,,26,15,32,0.00,,,142
2013-3-21,32,23,13,21,12,3,96,75,53,30.01,29.91,29.85,,,,26,16,32,0.17,,,110
2013-3-22,29,23,16,24,21,14,100,89,77,30.17,30.01,29.84,,,,26,8,32,0.12,,,111
2013-3-23,27,18,8,13,10,5,92,74,55,30.35,30.28,30.20,,,,29,17,38,0.00,,,314
2013-3-24,25,16,6,17,10,3,92,77,62,30.44,30.34,30.30,,,,25,16,31,0.01,,,327
2013-3-25,30,17,3,14,9,1,92,69,46,30.48,30.43,30.36,,,,14,9,21,0.00,,,334
2013-3-26,39,25,11,23,16,9,92,70,48,30.35,30.21,30.13,,,,20,13,26,0.00,,,113
2013-3-27,52,32,12,25,18,11,96,60,24,30.22,30.18,30.15,,,,16,6,31,0.00,,,80
2013-3-28,62,44,26,34,27,22,85,54,23,30.16,30.12,30.08,,,,17,7,20,0.00,,,102
2013-3-29,71,50,29,36,31,23,100,59,17,30.12,30.03,29.92,,,,24,8,32,0.00,,,142
2013-3-30,62,48,34,36,30,19,92,56,20,30.14,30.05,29.99,,,,35,13,44,0.00,,,315
2013-3-31,39,32,25,31,25,14,92,66,40,30.30,30.15,30.04,,,,20,11,29,0.02,,,11